Palmyra, Iowa
Current Conditions -  °F | °C
As of 1:27 PM on Saturday 20 Dec 2014 (Local Time) from KDSM Reporting Station
Haze Haze  
Wind Chill: 29°   Ceiling: 400
Heat Index: 35°   Visibility: 2mi
Dew Point: 32°   Wind: 8mph
Humidity: 89%   Direction: 150°SSE
Pressure: 30.12"   Gusts: NA
Location:  41.4707°N, 93.4797°W
Report Text: KDSM 201927Z 15007KT 2SM BR OVC004 02/00 A3012 RMK AO2 SFC VIS 3 T00170000
Loading
Personal Weather Stations






























Interactive Weather Map New forecast layout! Learn more

10-Day Weather Forecast

Advertisements
Track Severe Weather on mobile